createdAt,value
2018-09-17T00:00:16.632Z,4.33
2018-09-17T00:02:44.895Z,4.33
2018-09-17T00:05:17.862Z,4.00
2018-09-17T00:07:48.009Z,6.17
2018-09-17T00:10:21.039Z,3.97
2018-09-17T00:12:53.280Z,4.30
2018-09-17T00:15:21.650Z,4.73
2018-09-17T00:17:49.786Z,3.77
2018-09-17T00:20:24.251Z,4.27
2018-09-17T00:22:53.167Z,4.93
2018-09-17T00:25:21.271Z,7.77
2018-09-17T00:27:53.538Z,3.93
2018-09-17T00:30:29.067Z,7.70
2018-09-17T00:33:02.408Z,7.67
2018-09-17T00:35:34.783Z,5.00
2018-09-17T00:38:09.133Z,3.80
2018-09-17T00:40:48.883Z,4.00
2018-09-17T00:43:31.256Z,5.03
2018-09-17T00:46:05.601Z,5.23
2018-09-17T00:48:40.019Z,5.27
2018-09-17T00:51:14.475Z,6.70
2018-09-17T00:53:49.090Z,3.93
2018-09-17T00:56:30.424Z,3.90
2018-09-17T00:59:03.762Z,8.17
2018-09-17T01:01:38.984Z,7.00
2018-09-17T01:04:12.174Z,6.30
2018-09-17T01:06:40.403Z,5.07
2018-09-17T01:09:12.970Z,5.33
2018-09-17T01:11:41.056Z,7.10
2018-09-17T01:14:12.132Z,5.77
2018-09-17T01:16:40.301Z,5.37
2018-09-17T01:19:08.564Z,6.70
2018-09-17T01:21:42.934Z,4.83
2018-09-17T01:24:22.706Z,7.50
2018-09-17T01:26:50.916Z,8.33
2018-09-17T01:29:25.402Z,5.60
2018-09-17T01:32:00.459Z,5.43
2018-09-17T01:34:40.226Z,5.03
2018-09-17T01:37:11.256Z,5.27
2018-09-17T01:39:41.375Z,5.97
2018-09-17T01:42:09.541Z,5.67
2018-09-17T01:44:44.161Z,9.27
2018-09-17T01:47:15.086Z,6.13
2018-09-17T01:49:46.244Z,11.10
2018-09-17T01:52:14.328Z,6.13
2018-09-17T01:54:47.544Z,6.57
2018-09-17T01:57:20.258Z,5.67
2018-09-17T01:59:51.227Z,6.50
2018-09-17T02:02:19.366Z,6.53
2018-09-17T02:04:53.640Z,7.23
2018-09-17T02:07:25.713Z,6.50
2018-09-17T02:09:53.825Z,5.20
2018-09-17T02:12:33.496Z,7.07
2018-09-17T02:15:01.857Z,5.90
2018-09-17T02:17:39.529Z,4.30
2018-09-17T02:20:07.759Z,6.67
2018-09-17T02:22:38.593Z,4.37
2018-09-17T02:25:08.788Z,6.63
2018-09-17T02:27:37.012Z,7.23
2018-09-17T02:30:08.139Z,5.43
2018-09-17T02:32:38.199Z,5.70
2018-09-17T02:35:10.760Z,6.10
2018-09-17T02:37:38.873Z,5.70
2018-09-17T02:40:16.602Z,5.47
2018-09-17T02:42:49.335Z,6.87
2018-09-17T02:45:23.421Z,8.03
2018-09-17T02:47:55.803Z,5.47
2018-09-17T02:50:28.722Z,10.93
2018-09-17T02:53:02.163Z,5.87
2018-09-17T02:55:30.260Z,5.87
2018-09-17T02:58:07.002Z,7.13
2018-09-17T03:00:35.051Z,9.93
2018-09-17T03:03:10.204Z,6.83
2018-09-17T03:05:48.601Z,6.60
2018-09-17T03:08:28.225Z,6.47
2018-09-17T03:11:01.297Z,7.60
2018-09-17T03:13:32.568Z,5.20
2018-09-17T03:16:00.756Z,5.93
2018-09-17T03:18:41.940Z,5.17
2018-09-17T03:21:12.817Z,6.50
2018-09-17T03:23:41.033Z,6.10
2018-09-17T03:26:15.538Z,5.30
2018-09-17T03:28:46.550Z,5.30
2018-09-17T03:31:16.971Z,5.07
2018-09-17T03:33:44.994Z,5.10
2018-09-17T03:36:19.380Z,5.23
2018-09-17T03:38:50.397Z,5.77
2018-09-17T03:41:20.644Z,5.83
2018-09-17T03:43:51.019Z,5.27
2018-09-17T03:46:28.627Z,6.10
2018-09-17T03:48:56.665Z,4.70
2018-09-17T03:51:36.901Z,5.07
2018-09-17T03:54:08.307Z,6.67
2018-09-17T03:56:45.642Z,4.80
2018-09-17T03:59:16.719Z,6.00
2018-09-17T04:01:44.789Z,4.73
2018-09-17T04:04:17.867Z,5.07
2018-09-17T04:06:45.959Z,6.27
2018-09-17T04:09:20.110Z,7.00
2018-09-17T04:11:53.348Z,7.30
2018-09-17T04:14:21.459Z,7.13
2018-09-17T04:16:56.043Z,9.10
2018-09-17T04:19:24.097Z,8.07
2018-09-17T04:21:57.722Z,5.47
2018-09-17T04:24:32.229Z,5.57
2018-09-17T04:27:03.330Z,6.70
2018-09-17T04:29:43.582Z,7.80
2018-09-17T04:32:13.859Z,6.43
2018-09-17T04:34:41.909Z,5.63
2018-09-17T04:37:15.826Z,5.23
2018-09-17T04:39:44.012Z,6.30
2018-09-17T04:42:26.019Z,7.57
2018-09-17T04:44:54.111Z,5.73
2018-09-17T04:47:22.245Z,7.87
2018-09-17T04:49:54.581Z,7.90
2018-09-17T04:52:28.820Z,6.13
2018-09-17T04:55:00.004Z,6.80
2018-09-17T04:57:28.083Z,7.77
2018-09-17T05:00:08.927Z,6.43
2018-09-17T05:02:37.022Z,7.07
2018-09-17T05:05:08.372Z,6.37
2018-09-17T05:07:38.520Z,7.20
2018-09-17T05:10:11.034Z,7.63
2018-09-17T05:12:39.254Z,7.00
2018-09-17T05:15:07.261Z,8.33
2018-09-17T05:17:37.951Z,6.60
2018-09-17T05:20:11.030Z,5.57
2018-09-17T05:22:39.270Z,6.07
2018-09-17T05:25:07.338Z,7.60
2018-09-17T05:27:38.257Z,6.23
2018-09-17T05:30:08.731Z,7.30
2018-09-17T05:32:36.787Z,8.67
2018-09-17T05:35:05.366Z,6.77
2018-09-17T05:37:39.642Z,9.80
2018-09-17T05:40:10.921Z,7.37
2018-09-17T05:42:41.376Z,6.37
2018-09-17T05:45:09.501Z,9.03
2018-09-17T05:47:40.438Z,9.60
2018-09-17T05:50:11.469Z,5.90
2018-09-17T05:52:44.772Z,6.23
2018-09-17T05:55:16.993Z,6.43
2018-09-17T05:57:50.584Z,6.63
2018-09-17T06:00:21.706Z,8.77
2018-09-17T06:02:52.747Z,6.57
2018-09-17T06:05:25.043Z,17.63
2018-09-17T06:07:55.894Z,10.03
2018-09-17T06:10:23.918Z,7.23
2018-09-17T06:13:03.759Z,7.87
2018-09-17T06:15:31.844Z,7.10
2018-09-17T06:18:11.748Z,8.07
2018-09-17T06:20:39.855Z,6.83
2018-09-17T06:23:14.409Z,8.20
2018-09-17T06:25:48.756Z,5.73
2018-09-17T06:28:21.673Z,7.10
2018-09-17T06:30:49.966Z,5.10
2018-09-17T06:33:18.115Z,7.00
2018-09-17T06:35:56.369Z,5.30
2018-09-17T06:38:27.499Z,5.27
2018-09-17T06:40:55.590Z,5.23
2018-09-17T06:43:37.146Z,7.10
2018-09-17T06:46:05.369Z,9.57
2018-09-17T06:48:38.305Z,6.33
2018-09-17T06:51:06.442Z,5.37
2018-09-17T06:53:35.182Z,6.90
2018-09-17T06:56:03.227Z,6.53
2018-09-17T06:58:38.663Z,7.20
2018-09-17T07:01:13.979Z,4.97
2018-09-17T07:03:45.342Z,6.43
2018-09-17T07:06:33.026Z,5.03
2018-09-17T07:09:07.494Z,6.30
2018-09-17T07:11:45.969Z,6.03
2018-09-17T07:14:19.878Z,5.83
2018-09-17T07:16:49.947Z,4.87
2018-09-17T07:19:22.289Z,6.83
2018-09-17T07:21:57.479Z,10.17
2018-09-17T07:24:40.152Z,7.40
2018-09-17T07:27:11.240Z,5.93
2018-09-17T07:29:43.384Z,7.60
2018-09-17T07:32:11.447Z,4.63
2018-09-17T07:34:44.589Z,4.93
2018-09-17T07:37:12.732Z,8.20
2018-09-17T07:39:40.804Z,6.13
2018-09-17T07:42:13.176Z,5.17
2018-09-17T07:44:53.618Z,7.23
2018-09-17T07:47:26.768Z,6.80
2018-09-17T07:49:56.937Z,4.67
2018-09-17T07:52:25.072Z,4.17
2018-09-17T07:54:55.856Z,3.17
2018-09-17T07:57:26.928Z,3.57
2018-09-17T08:00:00.009Z,5.30
2018-09-17T08:02:28.088Z,5.60
2018-09-17T08:05:02.522Z,6.53
2018-09-17T08:07:37.016Z,3.77
2018-09-17T08:10:11.589Z,4.60
2018-09-17T08:12:43.873Z,3.33
2018-09-17T08:15:14.827Z,4.27
2018-09-17T08:17:43.033Z,3.63
2018-09-17T08:20:14.477Z,3.33
2018-09-17T08:22:43.117Z,4.23
2018-09-17T08:25:11.299Z,6.27
2018-09-17T08:27:44.348Z,3.40
2018-09-17T08:30:14.722Z,6.30
2018-09-17T08:32:42.813Z,4.63
2018-09-17T08:35:16.473Z,5.00
2018-09-17T08:37:44.717Z,6.97
2018-09-17T08:40:15.588Z,5.03
2018-09-17T08:42:43.665Z,5.73
2018-09-17T08:45:15.956Z,5.20
2018-09-17T08:47:49.124Z,5.83
2018-09-17T08:50:17.338Z,7.30
2018-09-17T08:52:48.191Z,9.90
2018-09-17T08:55:21.834Z,8.73
2018-09-17T08:57:58.015Z,9.50
2018-09-17T09:00:32.035Z,22.43
2018-09-17T09:03:10.877Z,31.10
2018-09-17T09:05:42.634Z,21.90
2018-09-17T09:08:15.907Z,42.33
2018-09-17T09:10:46.198Z,44.10
2018-09-17T09:13:19.120Z,54.60
2018-09-17T09:15:56.700Z,69.53
2018-09-17T09:18:36.310Z,71.60
2018-09-17T09:21:04.505Z,80.10
2018-09-17T09:23:39.214Z,90.23
2018-09-17T09:26:07.673Z,76.53
2018-09-17T09:28:35.680Z,110.67
2018-09-17T09:31:06.749Z,116.87
2018-09-17T09:33:34.805Z,136.07
2018-09-17T09:36:05.858Z,159.07
2018-09-17T09:38:33.895Z,116.13
2018-09-17T09:41:08.469Z,171.03
2018-09-17T09:43:40.684Z,184.33
2018-09-17T09:46:11.521Z,170.47
2018-09-17T09:48:39.826Z,155.77
2018-09-17T09:51:14.026Z,163.57
2018-09-17T09:53:49.500Z,145.33
2018-09-17T09:56:22.976Z,165.27
2018-09-17T09:58:55.171Z,155.97
2018-09-17T10:01:25.695Z,115.20
2018-09-17T10:04:01.202Z,109.97
2018-09-17T10:06:34.520Z,103.93
2018-09-17T10:09:13.981Z,129.77
2018-09-17T10:11:49.964Z,109.87
2018-09-17T10:14:25.628Z,72.57
2018-09-17T10:16:59.385Z,100.87
2018-09-17T10:19:34.893Z,68.37
2018-09-17T10:22:08.059Z,95.87
2018-09-17T10:24:38.468Z,66.43
2018-09-17T10:27:06.516Z,73.27
2018-09-17T10:29:43.379Z,81.93
2018-09-17T10:32:11.877Z,82.97
2018-09-17T10:34:39.922Z,97.87
2018-09-17T10:37:12.477Z,88.50
2018-09-17T10:39:52.880Z,57.43
2018-09-17T10:42:25.301Z,90.43
2018-09-17T10:45:07.132Z,97.17
2018-09-17T10:47:37.446Z,53.57
2018-09-17T10:50:05.622Z,65.13
2018-09-17T10:52:42.140Z,56.57
2018-09-17T10:55:15.386Z,53.57
2018-09-17T10:57:46.494Z,49.80
2018-09-17T11:00:14.805Z,51.00
2018-09-17T11:02:42.881Z,39.10
2018-09-17T11:05:13.851Z,40.13
2018-09-17T11:07:42.908Z,53.53
2018-09-17T11:10:13.864Z,28.87
2018-09-17T11:12:42.082Z,36.13
2018-09-17T11:15:10.322Z,32.67
2018-09-17T11:17:44.982Z,39.03
2018-09-17T11:20:15.133Z,37.10
2018-09-17T11:22:47.338Z,33.07
2018-09-17T11:25:18.407Z,69.17
2018-09-17T11:27:46.521Z,34.50
2018-09-17T11:30:17.788Z,34.17
2018-09-17T11:32:52.782Z,59.53
2018-09-17T11:35:26.590Z,38.20
2018-09-17T11:37:54.785Z,31.00
2018-09-17T11:40:22.860Z,48.80
2018-09-17T11:42:55.916Z,31.77
2018-09-17T11:45:24.005Z,28.43
2018-09-17T11:48:04.074Z,33.27
2018-09-17T11:50:34.194Z,28.13
2018-09-17T11:53:02.259Z,26.23
2018-09-17T11:55:33.112Z,17.50
2018-09-17T11:58:01.212Z,20.83
2018-09-17T12:00:44.398Z,17.00
2018-09-17T12:03:25.365Z,14.53
2018-09-17T12:05:58.381Z,25.20
2018-09-17T12:08:38.101Z,20.40
2018-09-17T12:11:06.275Z,14.17
2018-09-17T12:13:38.794Z,28.60
2018-09-17T12:16:13.352Z,17.63
2018-09-17T12:18:44.375Z,20.40
2018-09-17T12:21:14.425Z,26.63
2018-09-17T12:23:52.330Z,20.57
2018-09-17T12:26:22.781Z,17.60
2018-09-17T12:28:51.177Z,20.93
2018-09-17T12:31:19.182Z,12.93
2018-09-17T12:33:50.303Z,19.17
2018-09-17T12:36:18.601Z,17.37
2018-09-17T12:38:46.895Z,17.93
2018-09-17T12:41:15.021Z,19.03
2018-09-17T12:43:56.717Z,21.90
2018-09-17T12:46:29.070Z,16.50
2018-09-17T12:49:00.796Z,8.47
2018-09-17T12:51:29.206Z,13.83
2018-09-17T12:53:57.321Z,12.43
2018-09-17T12:56:30.575Z,6.50
2018-09-17T12:59:08.636Z,24.70
2018-09-17T13:01:36.730Z,33.07
2018-09-17T13:04:11.042Z,27.47
2018-09-17T13:06:43.170Z,27.30
2018-09-17T13:09:11.797Z,25.37
2018-09-17T13:11:42.689Z,19.17
2018-09-17T13:14:17.168Z,28.23
2018-09-17T13:16:59.244Z,24.93
2018-09-17T13:19:45.289Z,33.40
2018-09-17T13:22:13.292Z,25.20
2018-09-17T13:24:45.677Z,18.63
2018-09-17T13:27:20.695Z,19.67
2018-09-17T13:29:48.835Z,26.90
2018-09-17T13:32:24.328Z,16.60
2018-09-17T13:34:56.736Z,24.27
2018-09-17T13:37:31.933Z,20.73
2018-09-17T13:40:02.110Z,16.17
2018-09-17T13:42:32.299Z,17.83
2018-09-17T13:45:00.332Z,13.43
2018-09-17T13:47:36.657Z,10.47
2018-09-17T13:50:11.178Z,22.57
2018-09-17T13:52:42.203Z,16.60
2018-09-17T13:55:10.254Z,12.93
2018-09-17T13:57:41.149Z,23.83
2018-09-17T14:00:13.769Z,16.70
2018-09-17T14:02:41.881Z,16.87
2018-09-17T14:05:18.604Z,27.67
2018-09-17T14:07:46.702Z,22.57
2018-09-17T14:10:17.938Z,17.50
2018-09-17T14:12:48.046Z,9.20
2018-09-17T14:15:16.096Z,23.67
2018-09-17T14:17:50.992Z,10.90
2018-09-17T14:20:19.120Z,19.00
2018-09-17T14:22:52.553Z,27.20
2018-09-17T14:25:30.113Z,20.63
2018-09-17T14:28:03.912Z,25.50
2018-09-17T14:30:31.999Z,23.13
2018-09-17T14:33:11.001Z,28.37
2018-09-17T14:35:41.238Z,25.10
2018-09-17T14:38:09.311Z,20.17
2018-09-17T14:40:40.060Z,24.93
2018-09-17T14:43:10.271Z,23.20
2018-09-17T14:45:44.180Z,20.90
2018-09-17T14:48:12.309Z,28.60
2018-09-17T14:50:40.409Z,24.60
2018-09-17T14:53:14.270Z,24.20
2018-09-17T14:55:56.261Z,15.83
2018-09-17T14:58:29.237Z,26.17
2018-09-17T15:00:57.256Z,28.83
2018-09-17T15:03:29.036Z,14.80
2018-09-17T15:05:58.320Z,24.77
2018-09-17T15:08:29.679Z,32.70
2018-09-17T15:11:02.512Z,17.20
2018-09-17T15:13:33.590Z,26.73
2018-09-17T15:16:06.410Z,26.73
2018-09-17T15:18:35.438Z,14.87
2018-09-17T15:21:05.956Z,23.37
2018-09-17T15:23:45.932Z,26.30
2018-09-17T15:26:21.817Z,20.13
2018-09-17T15:28:51.955Z,25.70
2018-09-17T15:31:20.132Z,24.63
2018-09-17T15:33:55.493Z,30.77
2018-09-17T15:36:33.090Z,20.27
2018-09-17T15:39:01.222Z,23.60
2018-09-17T15:41:31.274Z,12.33
2018-09-17T15:43:59.473Z,23.67
2018-09-17T15:46:35.444Z,28.93
2018-09-17T15:49:06.851Z,21.37
2018-09-17T15:51:35.015Z,28.73
2018-09-17T15:54:10.337Z,21.87
2018-09-17T15:56:41.295Z,35.37
2018-09-17T15:59:09.533Z,19.63
2018-09-17T16:01:37.693Z,18.10
2018-09-17T16:04:13.026Z,19.37
2018-09-17T16:06:53.073Z,32.90
2018-09-17T16:09:25.658Z,26.50
2018-09-17T16:11:59.808Z,20.27
2018-09-17T16:14:27.945Z,31.73
2018-09-17T16:16:58.911Z,27.47
2018-09-17T16:19:27.017Z,26.93
2018-09-17T16:22:00.008Z,22.33
2018-09-17T16:24:28.191Z,26.77
2018-09-17T16:26:56.359Z,27.83
2018-09-17T16:29:27.233Z,27.17
2018-09-17T16:31:55.431Z,26.90
2018-09-17T16:34:29.875Z,19.10
2018-09-17T16:37:06.592Z,26.63
2018-09-17T16:39:34.705Z,20.77
2018-09-17T16:42:09.875Z,23.57
2018-09-17T16:44:39.951Z,26.33
2018-09-17T16:47:08.105Z,25.83
2018-09-17T16:49:42.405Z,22.23
2018-09-17T16:52:16.455Z,19.20
2018-09-17T16:54:44.513Z,23.20
2018-09-17T16:57:15.376Z,26.47
2018-09-17T16:59:43.559Z,30.93
2018-09-17T17:02:14.533Z,19.93
2018-09-17T17:04:42.857Z,24.07
2018-09-17T17:07:10.913Z,31.37
2018-09-17T17:09:42.170Z,71.00
2018-09-17T17:12:24.327Z,40.13
2018-09-17T17:14:52.713Z,30.37
2018-09-17T17:17:20.923Z,19.57
2018-09-17T17:19:55.545Z,40.93
2018-09-17T17:22:23.614Z,40.27
2018-09-17T17:24:57.625Z,34.83
2018-09-17T17:27:25.732Z,38.30
2018-09-17T17:29:56.837Z,52.53
2018-09-17T17:32:27.891Z,46.33
2018-09-17T17:34:58.493Z,70.70
2018-09-17T17:37:26.607Z,72.33
2018-09-17T17:39:59.160Z,83.77
2018-09-17T17:42:31.403Z,71.30
2018-09-17T17:45:04.609Z,100.63
2018-09-17T17:47:33.002Z,90.47
2018-09-17T17:50:01.078Z,103.03
2018-09-17T17:52:32.478Z,110.17
2018-09-17T17:55:03.637Z,117.93
2018-09-17T17:57:33.891Z,111.70
2018-09-17T18:00:06.044Z,126.57
2018-09-17T18:02:37.374Z,96.83
2018-09-17T18:05:11.722Z,95.90
2018-09-17T18:07:42.621Z,97.23
2018-09-17T18:10:10.757Z,92.90
2018-09-17T18:12:45.255Z,98.40
2018-09-17T18:15:16.318Z,103.33
2018-09-17T18:17:44.628Z,96.83
2018-09-17T18:20:12.736Z,91.17
2018-09-17T18:22:47.030Z,92.97
2018-09-17T18:25:20.628Z,105.13
2018-09-17T18:27:56.598Z,88.73
2018-09-17T18:30:24.882Z,84.43
2018-09-17T18:32:53.152Z,88.27
2018-09-17T18:35:29.943Z,82.50
2018-09-17T18:37:58.079Z,81.30
2018-09-17T18:40:29.260Z,79.93
2018-09-17T18:42:59.671Z,78.90
2018-09-17T18:45:30.934Z,58.97
2018-09-17T18:47:59.171Z,52.47
2018-09-17T18:50:35.463Z,56.17
2018-09-17T18:53:04.477Z,47.03
2018-09-17T18:55:34.463Z,56.77
2018-09-17T18:58:09.211Z,43.07
2018-09-17T19:00:37.260Z,47.17
2018-09-17T19:03:17.350Z,35.40
2018-09-17T19:05:47.484Z,30.83
2018-09-17T19:08:15.613Z,25.60
2018-09-17T19:10:51.072Z,24.67
2018-09-17T19:13:23.309Z,22.90
2018-09-17T19:15:56.899Z,16.70
2018-09-17T19:18:33.209Z,21.33
2018-09-17T19:21:06.529Z,21.17
2018-09-17T19:23:40.265Z,15.20
2018-09-17T19:26:11.050Z,14.03
2018-09-17T19:28:44.869Z,14.50
2018-09-17T19:31:23.123Z,12.53
2018-09-17T19:33:51.416Z,12.27
2018-09-17T19:36:19.604Z,11.50
2018-09-17T19:38:57.644Z,10.07
2018-09-17T19:41:26.431Z,8.10
2018-09-17T19:43:57.556Z,8.27
2018-09-17T19:46:25.715Z,8.63
2018-09-17T19:48:56.618Z,9.70
2018-09-17T19:51:32.073Z,7.87
2018-09-17T19:54:02.357Z,6.30
2018-09-17T19:56:30.897Z,6.53
2018-09-17T19:59:04.446Z,5.60
2018-09-17T20:01:33.186Z,6.13
2018-09-17T20:04:12.710Z,5.50
2018-09-17T20:06:47.909Z,6.03
2018-09-17T20:09:26.377Z,4.07
2018-09-17T20:11:54.910Z,4.67
2018-09-17T20:14:27.197Z,5.40
2018-09-17T20:17:07.128Z,4.20
2018-09-17T20:19:41.606Z,6.70
2018-09-17T20:22:10.504Z,3.70
2018-09-17T20:24:41.684Z,4.00
2018-09-17T20:27:09.907Z,6.60
2018-09-17T20:29:42.769Z,4.73
2018-09-17T20:32:10.994Z,4.43
2018-09-17T20:34:41.689Z,3.87
2018-09-17T20:37:10.425Z,5.50
2018-09-17T20:39:41.425Z,5.87
2018-09-17T20:42:12.272Z,5.40
2018-09-17T20:44:40.510Z,5.00
2018-09-17T20:47:08.610Z,7.20
2018-09-17T20:49:39.562Z,5.90
2018-09-17T20:52:07.612Z,4.73
2018-09-17T20:54:42.049Z,7.67
2018-09-17T20:57:14.211Z,3.43
2018-09-17T20:59:44.424Z,4.87
2018-09-17T21:02:12.616Z,6.53
2018-09-17T21:04:46.750Z,4.63
2018-09-17T21:07:26.654Z,6.27
2018-09-17T21:10:00.387Z,4.30
2018-09-17T21:12:28.480Z,4.90
2018-09-17T21:15:05.324Z,4.83
2018-09-17T21:17:33.538Z,7.07
2018-09-17T21:20:01.632Z,5.77
2018-09-17T21:22:34.175Z,7.17
2018-09-17T21:25:05.021Z,6.10
2018-09-17T21:27:33.043Z,4.23
2018-09-17T21:30:09.681Z,6.97
2018-09-17T21:32:44.034Z,4.70
2018-09-17T21:35:15.214Z,6.07
2018-09-17T21:37:51.614Z,6.40
2018-09-17T21:40:21.829Z,4.10
2018-09-17T21:42:49.942Z,6.60
2018-09-17T21:45:20.793Z,5.03
2018-09-17T21:47:48.861Z,6.97
2018-09-17T21:50:19.887Z,5.70
2018-09-17T21:52:47.984Z,4.60
2018-09-17T21:55:20.918Z,4.57
2018-09-17T21:57:49.210Z,4.23
2018-09-17T22:00:17.376Z,3.97
2018-09-17T22:02:51.869Z,5.53
2018-09-17T22:05:24.805Z,4.80
2018-09-17T22:07:52.978Z,4.13
2018-09-17T22:10:23.934Z,4.10
2018-09-17T22:12:53.921Z,4.83
2018-09-17T22:15:27.038Z,4.23
2018-09-17T22:18:08.936Z,4.93
2018-09-17T22:20:37.056Z,6.33
2018-09-17T22:23:18.982Z,7.00
2018-09-17T22:25:47.269Z,7.33
2018-09-17T22:28:15.340Z,6.83
2018-09-17T22:30:46.148Z,4.10
2018-09-17T22:33:17.034Z,6.23
2018-09-17T22:35:45.397Z,4.37
2018-09-17T22:38:15.934Z,5.37
2018-09-17T22:40:44.055Z,4.80
2018-09-17T22:43:16.409Z,7.00
2018-09-17T22:45:50.584Z,4.60
2018-09-17T22:48:25.973Z,4.47
2018-09-17T22:50:59.245Z,9.00
2018-09-17T22:53:27.453Z,5.07
2018-09-17T22:55:55.569Z,4.30
2018-09-17T22:58:27.931Z,6.50
2018-09-17T23:00:59.414Z,6.20
2018-09-17T23:03:31.573Z,5.30
2018-09-17T23:05:59.613Z,4.97
2018-09-17T23:08:35.060Z,7.40
2018-09-17T23:11:08.430Z,5.10
2018-09-17T23:13:42.916Z,6.40
2018-09-17T23:16:22.818Z,5.57
2018-09-17T23:18:50.983Z,5.73
2018-09-17T23:21:24.329Z,4.83
2018-09-17T23:23:57.464Z,5.23
2018-09-17T23:26:38.866Z,4.97
2018-09-17T23:29:12.053Z,7.30
2018-09-17T23:31:40.243Z,7.33
2018-09-17T23:34:11.054Z,4.70
2018-09-17T23:36:39.212Z,6.70
2018-09-17T23:39:14.543Z,5.30
2018-09-17T23:41:46.868Z,5.20
2018-09-17T23:44:16.805Z,5.77
2018-09-17T23:46:44.921Z,6.33
2018-09-17T23:49:15.898Z,5.50
2018-09-17T23:51:43.940Z,5.27
2018-09-17T23:54:19.242Z,5.87
2018-09-17T23:56:50.114Z,5.70
2018-09-17T23:59:18.186Z,4.67
